Portada
METAR-TAF:

METAR-TAF

Aeropuertos :

Sakakah, Arabia Saudita

latitud: 29-47N, longitud: 040-06E, altitud: 689 m

Observación

El informe se hizo hace 31 minutos, a las 00:00 UTC
Viento calma
Temperatura 19°C
Humedad 22%
Presión 1018 hPa
Visibilidad 10 km o más
sin nubes por debajo de 1500 m y sin presencia de cumulonimbus.

METAR: OESK 260000Z 00000KT CAVOK 19/M03 Q1018

Hora: 03:31 (00:31 UTC)

Pronóstico

El informe se hizo hace 1 hora y 31 minutos, a las 23:00 UTC
Pronóstico válido del 26 a las 00 UTC al 27 a las 06 UTC
Viento 3 kt con dirección variable
Visibilidad: 7000 m
Evolucionando progresivamente
del 26 a las 06 UTC al 26 a las 08 UTC
Viento 15 kt del este
Temporalmente
del 26 a las 06 UTC al 26 a las 18 UTC
Visibilidad: 3500 m
Escasas nubes a una altura de 4000 ft
Ventisca alta de polvo

TAF: OESK 252300Z 2600/2706 VRB03KT 7000 NSC BECMG 2606/2608 09015KT TEMPO 2606/2618 3500 BLDU FEW040

Observaciones y pronósticos meteorológicos de más de 4000 aeropuertos (mensajes METAR y TAF).

Los puntos amarillos y rojos representan las estaciones disponibles.

Ponga el ratón en el punto deseado para ver el nombre de la estación.

Haga clic para ver las observaciones y los pronósticos meteorológicos.

Para cambiar el mapa : haga clic en los botones verdes con una cruz de color negro para hacer un zoom, en el botón verde con un guión para alejar o en las flechas verdes para mapas adyacentes.


METAR-TAF: